Time;durP1;ratioP1;P1;durP2;ratioP2;P2;SDS_P1;SDS_P2;PMS_P1;PMS_P2;Temp;Humidity;BMP_temperature;BMP_pressure;BME280_temperature;BME280_humidity;BME280_pressure;Samples;Min_cycle;Max_cycle;Signal;HPM_P1;HPM_P2
2022/02/13 00:01:36;;;;;;;3.92;2.70;;;;;;;;;;5002042;28;20100;-58
2022/02/13 00:04:01;;;;;;;3.58;2.88;;;;;;;;;;5002012;28;20029;-61
2022/02/13 00:06:27;;;;;;;4.45;2.95;;;;;;;;;;5001750;28;20481;-61
2022/02/13 00:08:53;;;;;;;3.25;2.53;;;;;;;;;;5002085;28;20026;-62
2022/02/13 00:11:18;;;;;;;3.78;2.63;;;;;;;;;;5001659;28;20032;-62
2022/02/13 00:13:44;;;;;;;4.63;2.80;;;;;;;;;;4995374;28;20018;-62
2022/02/13 00:16:09;;;;;;;4.38;2.63;;;;;;;;;;4991656;28;20022;-62
2022/02/13 00:18:34;;;;;;;3.97;2.80;;;;;;;;;;5001505;28;20029;-62
2022/02/13 00:20:59;;;;;;;3.53;2.60;;;;;;;;;;5001764;28;20300;-61
2022/02/13 00:23:25;;;;;;;3.53;2.50;;;;;;;;;;5001893;28;20767;-60
2022/02/13 00:25:50;;;;;;;4.13;2.77;;;;;;;;;;5001152;28;20537;-62
2022/02/13 00:28:15;;;;;;;4.30;2.60;;;;;;;;;;5001663;28;20312;-62
2022/02/13 00:30:46;;;;;;;3.30;2.45;;;;;;;;;;5001670;28;20265;-62
2022/02/13 00:33:11;;;;;;;3.80;2.50;;;;;;;;;;5000871;28;20022;-61
2022/02/13 00:35:37;;;;;;;3.85;2.60;;;;;;;;;;5001790;28;20556;-58
2022/02/13 00:38:02;;;;;;;3.73;2.53;;;;;;;;;;5001313;28;20057;-62
2022/02/13 00:40:27;;;;;;;3.50;2.60;;;;;;;;;;5001033;28;20279;-62
2022/02/13 00:42:52;;;;;;;4.60;2.80;;;;;;;;;;5001255;28;20392;-61
2022/02/13 00:45:18;;;;;;;3.97;2.97;;;;;;;;;;5001530;28;20770;-63
2022/02/13 00:47:43;;;;;;;4.18;2.67;;;;;;;;;;5000938;28;20328;-61
2022/02/13 00:50:08;;;;;;;3.08;2.38;;;;;;;;;;5001558;28;20022;-61
2022/02/13 00:52:34;;;;;;;3.78;2.58;;;;;;;;;;5001435;28;20026;-62
2022/02/13 00:54:59;;;;;;;3.42;2.58;;;;;;;;;;5000640;28;20543;-60
2022/02/13 00:57:24;;;;;;;3.70;2.95;;;;;;;;;;5001430;28;20401;-62
2022/02/13 00:59:49;;;;;;;4.20;2.73;;;;;;;;;;5002389;28;20526;-62
2022/02/13 01:02:15;;;;;;;4.23;2.43;;;;;;;;;;5002314;28;20336;-58
2022/02/13 01:04:40;;;;;;;4.47;2.70;;;;;;;;;;5002424;28;20320;-60
2022/02/13 01:07:05;;;;;;;4.33;2.67;;;;;;;;;;5000883;28;20355;-60
2022/02/13 01:09:30;;;;;;;3.75;2.70;;;;;;;;;;5001146;28;20771;-63
2022/02/13 01:11:56;;;;;;;3.70;2.43;;;;;;;;;;5001251;28;20069;-62
2022/02/13 01:14:21;;;;;;;3.33;2.53;;;;;;;;;;5000981;28;20356;-62
2022/02/13 01:16:46;;;;;;;3.63;2.70;;;;;;;;;;5001139;28;20265;-61
2022/02/13 01:19:11;;;;;;;3.67;2.20;;;;;;;;;;4999505;28;20826;-59
2022/02/13 01:21:37;;;;;;;3.08;2.47;;;;;;;;;;4981164;28;20755;-62
2022/02/13 01:24:02;;;;;;;4.10;2.70;;;;;;;;;;4980731;28;20504;-61
2022/02/13 01:26:27;;;;;;;3.90;2.60;;;;;;;;;;4984014;28;21102;-61
2022/02/13 01:28:52;;;;;;;3.90;2.73;;;;;;;;;;4991383;28;20131;-63
2022/02/13 01:31:18;;;;;;;3.72;2.72;;;;;;;;;;4994706;28;20286;-58
2022/02/13 01:33:43;;;;;;;3.80;2.50;;;;;;;;;;4987060;28;20673;-61
2022/02/13 01:36:08;;;;;;;4.05;2.42;;;;;;;;;;4970847;28;20018;-63
2022/02/13 01:38:34;;;;;;;4.10;2.33;;;;;;;;;;5004237;28;20028;-63
2022/02/13 01:40:59;;;;;;;4.63;2.67;;;;;;;;;;4987582;28;20567;-61
2022/02/13 01:43:24;;;;;;;3.33;2.42;;;;;;;;;;4984881;28;20028;-61
2022/02/13 01:45:50;;;;;;;3.20;2.45;;;;;;;;;;4966999;28;20081;-57
2022/02/13 01:48:15;;;;;;;3.97;2.33;;;;;;;;;;4983820;28;20061;-64
2022/02/13 01:50:40;;;;;;;4.03;2.67;;;;;;;;;;4998227;28;20297;-64
2022/02/13 01:53:06;;;;;;;3.60;2.17;;;;;;;;;;5004232;28;20268;-61
2022/02/13 01:55:31;;;;;;;3.00;2.53;;;;;;;;;;4986077;28;20026;-60
2022/02/13 01:57:57;;;;;;;3.75;2.58;;;;;;;;;;4986234;28;20034;-64
2022/02/13 02:00:22;;;;;;;3.17;2.35;;;;;;;;;;5004158;28;20601;-62
2022/02/13 02:02:48;;;;;;;2.72;2.13;;;;;;;;;;5003731;28;20666;-62
2022/02/13 02:05:13;;;;;;;3.70;2.57;;;;;;;;;;5003535;28;20116;-63
2022/02/13 02:07:38;;;;;;;3.77;2.73;;;;;;;;;;5004063;28;20276;-62
2022/02/13 02:10:04;;;;;;;3.00;2.50;;;;;;;;;;4995829;28;20838;-62
2022/02/13 02:12:29;;;;;;;3.30;2.38;;;;;;;;;;4983867;28;20065;-62
2022/02/13 02:14:54;;;;;;;3.70;2.67;;;;;;;;;;4999764;28;20606;-63
2022/02/13 02:17:19;;;;;;;4.23;2.53;;;;;;;;;;5003387;28;20841;-62
2022/02/13 02:19:45;;;;;;;3.10;2.10;;;;;;;;;;5004124;28;20655;-62
2022/02/13 02:22:10;;;;;;;3.78;2.67;;;;;;;;;;5003376;28;20339;-63
2022/02/13 02:24:35;;;;;;;2.97;2.40;;;;;;;;;;5003529;28;20037;-61
2022/02/13 02:27:01;;;;;;;2.75;2.05;;;;;;;;;;5003103;28;20484;-62
2022/02/13 02:29:26;;;;;;;3.00;2.25;;;;;;;;;;5003425;28;20048;-60
2022/02/13 02:31:51;;;;;;;2.95;2.40;;;;;;;;;;5003124;28;20432;-62
2022/02/13 02:34:17;;;;;;;2.95;2.35;;;;;;;;;;5013267;28;20044;-62
2022/02/13 02:36:42;;;;;;;3.20;2.23;;;;;;;;;;5009829;28;20634;-58
2022/02/13 02:39:07;;;;;;;3.53;2.30;;;;;;;;;;5002781;28;20366;-58
2022/02/13 02:41:32;;;;;;;3.57;2.20;;;;;;;;;;5003244;28;20496;-61
2022/02/13 02:43:58;;;;;;;3.47;2.22;;;;;;;;;;5003749;28;21130;-61
2022/02/13 02:46:23;;;;;;;3.05;2.17;;;;;;;;;;4985779;28;20050;-62
2022/02/13 02:48:48;;;;;;;2.93;2.20;;;;;;;;;;5003250;28;20061;-62
2022/02/13 02:51:14;;;;;;;3.57;2.10;;;;;;;;;;5002639;28;20261;-61
2022/02/13 02:53:39;;;;;;;3.23;2.43;;;;;;;;;;5007945;28;20276;-60
2022/02/13 02:56:04;;;;;;;3.10;2.33;;;;;;;;;;5014057;28;20291;-62
2022/02/13 02:58:30;;;;;;;2.92;2.20;;;;;;;;;;5002961;28;20034;-59
2022/02/13 03:00:55;;;;;;;3.10;2.30;;;;;;;;;;5003308;28;20022;-59
2022/02/13 03:03:20;;;;;;;2.67;2.08;;;;;;;;;;5002603;28;20680;-61
2022/02/13 03:05:48;;;;;;;3.15;2.30;;;;;;;;;;5003189;28;20022;-61
2022/02/13 03:08:13;;;;;;;5.10;2.30;;;;;;;;;;5003178;28;20069;-60
2022/02/13 03:10:39;;;;;;;2.90;2.27;;;;;;;;;;4989353;28;20026;-60
2022/02/13 03:13:04;;;;;;;2.92;1.90;;;;;;;;;;4983135;28;20273;-57
2022/02/13 03:15:29;;;;;;;3.13;2.30;;;;;;;;;;4991120;28;20029;-56
2022/02/13 03:17:54;;;;;;;3.47;2.37;;;;;;;;;;4989968;28;20308;-55
2022/02/13 03:20:20;;;;;;;3.33;2.20;;;;;;;;;;5002734;28;20334;-58
2022/02/13 03:22:45;;;;;;;2.75;2.17;;;;;;;;;;5002900;28;20084;-60
2022/02/13 03:25:10;;;;;;;3.22;2.35;;;;;;;;;;5002091;28;20029;-57
2022/02/13 03:27:35;;;;;;;3.25;2.30;;;;;;;;;;5002351;28;20385;-61
2022/02/13 03:30:01;;;;;;;3.00;2.20;;;;;;;;;;5002234;28;20100;-61
2022/02/13 03:32:26;;;;;;;2.80;1.77;;;;;;;;;;4990992;28;20274;-60
2022/02/13 03:34:51;;;;;;;2.67;2.00;;;;;;;;;;4997364;28;20268;-61
2022/02/13 03:37:16;;;;;;;2.70;1.90;;;;;;;;;;4985894;28;20743;-59
2022/02/13 03:39:42;;;;;;;2.67;2.20;;;;;;;;;;5001935;28;20338;-61
2022/02/13 03:42:07;;;;;;;2.72;1.90;;;;;;;;;;5001652;28;20300;-60
2022/02/13 03:44:33;;;;;;;3.80;2.20;;;;;;;;;;4981709;28;20042;-61
2022/02/13 03:46:59;;;;;;;2.72;1.90;;;;;;;;;;4997573;28;20735;-62
2022/02/13 03:49:24;;;;;;;2.70;1.77;;;;;;;;;;5001280;28;20092;-61
2022/02/13 03:51:49;;;;;;;2.83;1.90;;;;;;;;;;4996532;28;20033;-58
2022/02/13 03:54:14;;;;;;;2.88;1.92;;;;;;;;;;4982245;28;20273;-62
2022/02/13 03:56:40;;;;;;;2.25;1.80;;;;;;;;;;4995040;28;20030;-63
2022/02/13 03:59:05;;;;;;;3.00;2.00;;;;;;;;;;5002030;28;20041;-59
2022/02/13 04:01:31;;;;;;;2.93;2.13;;;;;;;;;;5001767;28;20050;-61
2022/02/13 04:03:56;;;;;;;2.67;1.98;;;;;;;;;;5001970;28;20723;-63
2022/02/13 04:06:22;;;;;;;2.85;1.90;;;;;;;;;;5001997;28;20052;-62
2022/02/13 04:08:47;;;;;;;2.75;1.90;;;;;;;;;;5002405;28;20053;-60
2022/02/13 04:11:12;;;;;;;2.70;1.90;;;;;;;;;;5001101;28;20032;-61
2022/02/13 04:13:37;;;;;;;2.50;1.80;;;;;;;;;;5001710;28;20275;-56
2022/02/13 04:16:02;;;;;;;3.00;2.10;;;;;;;;;;5002261;28;20269;-62
2022/02/13 04:18:28;;;;;;;2.92;2.10;;;;;;;;;;5001493;28;20268;-59
2022/02/13 04:20:53;;;;;;;2.58;1.90;;;;;;;;;;5001438;28;20022;-61
2022/02/13 04:23:18;;;;;;;2.80;1.93;;;;;;;;;;5001658;28;20437;-62
2022/02/13 04:25:43;;;;;;;2.75;2.05;;;;;;;;;;5001332;28;20265;-62
2022/02/13 04:28:09;;;;;;;2.40;1.80;;;;;;;;;;5001630;28;20022;-59
2022/02/13 04:30:34;;;;;;;2.40;1.67;;;;;;;;;;5001674;28;20265;-60
2022/02/13 04:32:59;;;;;;;3.40;2.00;;;;;;;;;;5001392;28;20803;-62
2022/02/13 04:35:25;;;;;;;2.70;1.90;;;;;;;;;;5000521;28;21163;-62
2022/02/13 04:37:51;;;;;;;2.38;1.80;;;;;;;;;;4989654;28;20269;-63
2022/02/13 04:40:16;;;;;;;2.90;1.90;;;;;;;;;;5002921;28;20103;-62
2022/02/13 04:42:41;;;;;;;2.37;1.80;;;;;;;;;;5001268;28;20061;-60
2022/02/13 04:45:07;;;;;;;1.70;1.50;;;;;;;;;;5001399;28;20269;-61
2022/02/13 04:47:32;;;;;;;2.70;1.98;;;;;;;;;;5001412;28;20053;-60
2022/02/13 04:49:57;;;;;;;2.50;1.70;;;;;;;;;;5001869;28;20121;-62
2022/02/13 04:52:22;;;;;;;2.50;1.58;;;;;;;;;;5001942;28;20280;-62
2022/02/13 04:54:48;;;;;;;2.65;1.90;;;;;;;;;;5001134;28;20017;-61
2022/02/13 04:57:13;;;;;;;2.87;1.90;;;;;;;;;;5000907;28;20173;-57
2022/02/13 04:59:38;;;;;;;1.85;1.45;;;;;;;;;;4994394;28;21143;-60
2022/02/13 05:02:04;;;;;;;1.90;1.50;;;;;;;;;;4988646;28;20030;-61
2022/02/13 05:04:30;;;;;;;2.15;1.40;;;;;;;;;;5001635;28;20269;-61
2022/02/13 05:06:55;;;;;;;2.40;1.50;;;;;;;;;;5001755;28;20088;-61
2022/02/13 05:09:20;;;;;;;1.70;1.35;;;;;;;;;;5000776;28;20611;-60
2022/02/13 05:11:45;;;;;;;2.50;1.70;;;;;;;;;;5000657;28;20506;-59
2022/02/13 05:14:11;;;;;;;2.80;1.60;;;;;;;;;;4974813;28;20328;-60
2022/02/13 05:16:36;;;;;;;2.20;1.77;;;;;;;;;;4993564;28;20265;-57
2022/02/13 05:19:01;;;;;;;2.77;1.70;;;;;;;;;;5001518;28;20272;-62
2022/02/13 05:21:26;;;;;;;2.33;1.50;;;;;;;;;;5000484;28;20296;-58
2022/02/13 05:23:51;;;;;;;2.10;1.40;;;;;;;;;;5000668;28;20508;-61
2022/02/13 05:26:17;;;;;;;1.80;1.35;;;;;;;;;;5000828;28;20277;-61
2022/02/13 05:28:43;;;;;;;2.17;1.60;;;;;;;;;;5000898;28;20125;-62
2022/02/13 05:31:09;;;;;;;2.22;1.50;;;;;;;;;;5000702;28;20045;-60
2022/02/13 05:33:34;;;;;;;2.15;1.63;;;;;;;;;;5004754;28;20060;-63
2022/02/13 05:35:59;;;;;;;1.65;1.30;;;;;;;;;;5013431;28;20041;-58
2022/02/13 05:38:25;;;;;;;1.97;1.50;;;;;;;;;;4994948;28;20041;-63
2022/02/13 05:40:50;;;;;;;2.10;1.30;;;;;;;;;;4980834;28;20335;-60
2022/02/13 05:43:15;;;;;;;3.17;1.70;;;;;;;;;;4996979;28;20518;-61
2022/02/13 05:45:40;;;;;;;4.60;1.77;;;;;;;;;;4981722;28;20266;-65
2022/02/13 05:48:06;;;;;;;2.30;1.30;;;;;;;;;;4980895;28;20299;-58
2022/02/13 05:50:31;;;;;;;2.07;1.40;;;;;;;;;;4981771;28;20026;-63
2022/02/13 05:52:56;;;;;;;1.97;1.10;;;;;;;;;;4981898;28;20273;-63
2022/02/13 05:55:21;;;;;;;1.90;1.57;;;;;;;;;;4982214;28;20275;-65
2022/02/13 05:57:47;;;;;;;1.83;1.33;;;;;;;;;;4982173;28;20365;-61
2022/02/13 06:00:12;;;;;;;1.98;1.30;;;;;;;;;;4982116;28;20050;-65
2022/02/13 06:02:41;;;;;;;1.70;1.20;;;;;;;;;;4988338;28;20034;-63
2022/02/13 06:05:06;;;;;;;2.08;1.40;;;;;;;;;;4964728;28;20018;-58
2022/02/13 06:07:36;;;;;;;1.50;1.20;;;;;;;;;;4982280;28;20036;-63
2022/02/13 06:10:01;;;;;;;2.58;1.40;;;;;;;;;;4981295;28;20030;-60
2022/02/13 06:12:27;;;;;;;2.33;1.30;;;;;;;;;;4983341;28;20413;-64
2022/02/13 06:14:52;;;;;;;1.98;1.15;;;;;;;;;;4985605;28;20105;-66
2022/02/13 06:17:17;;;;;;;2.30;1.30;;;;;;;;;;5001306;28;20523;-61
2022/02/13 06:19:42;;;;;;;1.97;1.43;;;;;;;;;;4999875;28;20308;-65
2022/02/13 06:22:07;;;;;;;1.60;1.30;;;;;;;;;;4984008;28;20364;-64
2022/02/13 06:24:33;;;;;;;1.45;1.10;;;;;;;;;;4984036;28;20277;-62
2022/02/13 06:26:58;;;;;;;1.93;1.40;;;;;;;;;;4998516;28;20472;-63
2022/02/13 06:29:23;;;;;;;1.80;1.20;;;;;;;;;;5003936;28;20281;-63
2022/02/13 06:31:48;;;;;;;1.77;1.40;;;;;;;;;;4996540;28;20109;-63
2022/02/13 06:34:15;;;;;;;1.83;1.27;;;;;;;;;;4975864;28;20097;-55
2022/02/13 06:36:41;;;;;;;1.10;0.95;;;;;;;;;;5003908;28;21175;-62
2022/02/13 06:39:06;;;;;;;1.40;1.20;;;;;;;;;;4995153;28;20022;-61
2022/02/13 06:41:31;;;;;;;2.03;1.10;;;;;;;;;;5000690;28;20684;-64
2022/02/13 06:43:56;;;;;;;2.00;1.40;;;;;;;;;;5002785;28;20101;-61
2022/02/13 06:46:22;;;;;;;1.50;1.20;;;;;;;;;;4997756;28;20297;-64
2022/02/13 06:48:47;;;;;;;1.67;1.20;;;;;;;;;;5000205;28;20033;-62
2022/02/13 06:51:12;;;;;;;2.10;1.40;;;;;;;;;;4999498;28;20492;-62
2022/02/13 06:53:38;;;;;;;1.83;1.25;;;;;;;;;;4999488;28;20028;-64
2022/02/13 06:56:03;;;;;;;2.08;1.30;;;;;;;;;;5002334;28;20018;-59
2022/02/13 06:58:28;;;;;;;1.80;1.10;;;;;;;;;;5001728;28;20044;-63
2022/02/13 07:00:53;;;;;;;1.80;1.13;;;;;;;;;;5002096;28;20022;-63
2022/02/13 07:03:19;;;;;;;1.67;1.27;;;;;;;;;;4981405;28;20303;-63
2022/02/13 07:05:44;;;;;;;1.90;1.30;;;;;;;;;;5001344;28;20296;-63
2022/02/13 07:08:09;;;;;;;2.00;1.30;;;;;;;;;;5002221;28;20462;-60
2022/02/13 07:10:34;;;;;;;1.60;1.10;;;;;;;;;;4997314;28;20268;-64
2022/02/13 07:13:00;;;;;;;1.58;1.17;;;;;;;;;;5002911;28;20706;-63
2022/02/13 07:15:26;;;;;;;1.63;1.20;;;;;;;;;;5002647;28;20024;-65
2022/02/13 07:17:52;;;;;;;1.35;1.00;;;;;;;;;;5002639;28;20026;-64
2022/02/13 07:20:17;;;;;;;1.30;1.00;;;;;;;;;;5002824;28;20026;-64
2022/02/13 07:22:42;;;;;;;1.33;0.98;;;;;;;;;;5001800;28;20334;-62
2022/02/13 07:25:08;;;;;;;1.47;1.13;;;;;;;;;;5000049;28;20160;-62
2022/02/13 07:27:33;;;;;;;2.03;1.27;;;;;;;;;;4965350;28;20783;-58
2022/02/13 07:29:59;;;;;;;1.48;1.00;;;;;;;;;;4985938;28;20034;-63
2022/02/13 07:32:24;;;;;;;1.42;1.15;;;;;;;;;;4986141;28;20307;-63
2022/02/13 07:34:49;;;;;;;1.50;1.20;;;;;;;;;;4983914;28;20109;-61
2022/02/13 07:37:14;;;;;;;2.13;1.27;;;;;;;;;;4987768;28;20064;-63
2022/02/13 07:39:40;;;;;;;2.37;1.23;;;;;;;;;;4990487;28;20272;-59
2022/02/13 07:42:06;;;;;;;1.73;1.20;;;;;;;;;;5002110;28;20328;-63
2022/02/13 07:44:31;;;;;;;1.80;1.30;;;;;;;;;;5002432;28;20026;-62
2022/02/13 07:46:56;;;;;;;2.20;1.10;;;;;;;;;;5001906;28;20050;-62
2022/02/13 07:49:21;;;;;;;1.37;1.10;;;;;;;;;;5002052;28;20489;-63
2022/02/13 07:51:47;;;;;;;1.90;1.30;;;;;;;;;;5002151;28;20315;-63
2022/02/13 07:54:12;;;;;;;1.50;1.13;;;;;;;;;;5001172;28;20421;-62
2022/02/13 07:56:37;;;;;;;2.55;1.30;;;;;;;;;;4992154;28;20029;-63
2022/02/13 07:59:03;;;;;;;3.00;1.10;;;;;;;;;;4982588;28;20112;-61
2022/02/13 08:01:28;;;;;;;1.83;1.33;;;;;;;;;;4980420;28;20288;-59
2022/02/13 08:03:53;;;;;;;1.85;1.23;;;;;;;;;;4984780;28;20273;-63
2022/02/13 08:06:19;;;;;;;2.92;1.48;;;;;;;;;;4986239;28;20030;-62
2022/02/13 08:08:46;;;;;;;2.22;1.10;;;;;;;;;;4982071;28;20030;-64
2022/02/13 08:11:13;;;;;;;2.50;1.30;;;;;;;;;;4982043;28;20014;-63
2022/02/13 08:13:38;;;;;;;1.63;1.00;;;;;;;;;;4988443;28;20025;-63
2022/02/13 08:16:05;;;;;;;3.40;1.20;;;;;;;;;;5002524;28;20053;-63
2022/02/13 08:18:30;;;;;;;3.00;1.30;;;;;;;;;;4987421;28;20026;-62
2022/02/13 08:20:55;;;;;;;3.85;1.25;;;;;;;;;;4994608;28;20072;-60
2022/02/13 08:23:21;;;;;;;3.33;1.40;;;;;;;;;;4998813;28;20128;-62
2022/02/13 08:25:48;;;;;;;3.35;1.23;;;;;;;;;;4985507;28;20339;-62
2022/02/13 08:28:13;;;;;;;4.43;1.40;;;;;;;;;;5001276;28;20088;-63
2022/02/13 08:30:40;;;;;;;2.72;1.20;;;;;;;;;;4996835;28;20017;-60
2022/02/13 08:33:06;;;;;;;2.67;1.30;;;;;;;;;;4985290;28;20049;-60
2022/02/13 08:35:31;;;;;;;2.10;1.17;;;;;;;;;;4998474;28;20743;-60
2022/02/13 08:37:56;;;;;;;3.23;1.27;;;;;;;;;;5000622;28;20264;-64
2022/02/13 08:40:21;;;;;;;1.73;1.00;;;;;;;;;;4991282;28;20269;-62
2022/02/13 08:42:47;;;;;;;2.45;1.30;;;;;;;;;;4993703;28;20630;-58
2022/02/13 08:45:12;;;;;;;2.60;1.43;;;;;;;;;;5001152;28;20814;-57
2022/02/13 08:47:37;;;;;;;3.25;1.40;;;;;;;;;;5001090;28;20284;-62
2022/02/13 08:50:03;;;;;;;1.87;1.20;;;;;;;;;;5002011;28;20022;-62
2022/02/13 08:52:28;;;;;;;3.03;1.40;;;;;;;;;;4984002;28;20781;-63
2022/02/13 08:54:53;;;;;;;3.13;1.50;;;;;;;;;;5000762;28;20188;-62
2022/02/13 08:57:19;;;;;;;2.10;1.40;;;;;;;;;;4983186;28;20296;-64
2022/02/13 08:59:44;;;;;;;2.05;1.30;;;;;;;;;;5001228;28;20261;-61
2022/02/13 09:02:09;;;;;;;2.22;1.30;;;;;;;;;;5001410;28;20112;-64
2022/02/13 09:04:35;;;;;;;1.43;0.93;;;;;;;;;;5001383;28;20435;-61
2022/02/13 09:07:00;;;;;;;3.28;1.30;;;;;;;;;;5001321;28;20108;-59
2022/02/13 09:09:26;;;;;;;2.67;1.23;;;;;;;;;;5000718;28;20018;-61
2022/02/13 09:11:51;;;;;;;2.38;1.35;;;;;;;;;;5000877;28;20460;-62
2022/02/13 09:14:16;;;;;;;2.73;1.37;;;;;;;;;;5001351;28;20028;-63
2022/02/13 09:16:42;;;;;;;2.17;1.30;;;;;;;;;;5000637;28;20866;-61
2022/02/13 09:19:07;;;;;;;1.63;1.00;;;;;;;;;;5001401;28;20533;-61
2022/02/13 09:21:33;;;;;;;1.67;1.17;;;;;;;;;;5000998;28;20277;-62
2022/02/13 09:23:58;;;;;;;2.00;1.40;;;;;;;;;;5000969;28;20029;-62
2022/02/13 09:26:24;;;;;;;2.33;1.30;;;;;;;;;;5001145;28;20034;-58
2022/02/13 09:28:49;;;;;;;2.10;1.33;;;;;;;;;;5001232;28;20041;-61
2022/02/13 09:31:14;;;;;;;2.07;1.10;;;;;;;;;;5000830;28;20037;-63
2022/02/13 09:33:39;;;;;;;1.80;1.13;;;;;;;;;;5000693;28;20284;-58
2022/02/13 09:36:05;;;;;;;2.35;1.23;;;;;;;;;;4983447;28;20034;-61
2022/02/13 09:38:30;;;;;;;2.42;1.33;;;;;;;;;;5001380;28;20116;-63
2022/02/13 09:40:57;;;;;;;3.40;1.40;;;;;;;;;;5000892;28;20026;-60
2022/02/13 09:43:22;;;;;;;2.53;1.40;;;;;;;;;;5000609;28;20289;-64
2022/02/13 09:45:50;;;;;;;2.47;1.27;;;;;;;;;;4996064;28;20602;-63
2022/02/13 09:48:16;;;;;;;1.90;1.30;;;;;;;;;;4984813;28;20108;-62
2022/02/13 09:50:41;;;;;;;1.85;1.23;;;;;;;;;;4985163;28;20034;-59
2022/02/13 09:53:06;;;;;;;1.50;1.20;;;;;;;;;;4999717;28;20026;-62
2022/02/13 09:55:32;;;;;;;1.73;1.20;;;;;;;;;;4985171;28;20138;-61
2022/02/13 09:58:01;;;;;;;1.63;1.27;;;;;;;;;;4984561;28;20026;-60
2022/02/13 10:00:47;;;;;;;1.73;1.25;;;;;;;;;;5004479;28;20052;-60
2022/02/13 10:03:24;;;;;;;2.83;1.45;;;;;;;;;;5007261;28;20029;-60
2022/02/13 10:05:50;;;;;;;2.63;1.50;;;;;;;;;;5004190;28;20044;-61
2022/02/13 10:08:29;;;;;;;1.65;1.27;;;;;;;;;;5004501;28;20013;-62
2022/02/13 10:11:13;;;;;;;2.78;1.50;;;;;;;;;;5004102;28;20022;-61
2022/02/13 10:13:44;;;;;;;2.28;1.27;;;;;;;;;;5000528;28;20888;-62
2022/02/13 10:16:15;;;;;;;1.92;1.35;;;;;;;;;;4984260;28;20598;-61
2022/02/13 10:18:44;;;;;;;1.83;1.40;;;;;;;;;;4992487;28;20115;-63
2022/02/13 10:21:09;;;;;;;2.55;1.60;;;;;;;;;;5015979;28;20017;-62
2022/02/13 10:23:34;;;;;;;1.80;1.30;;;;;;;;;;5004670;28;20499;-61
2022/02/13 10:25:59;;;;;;;2.67;1.40;;;;;;;;;;5003712;28;20730;-59
2022/02/13 10:28:25;;;;;;;1.93;1.30;;;;;;;;;;5003505;28;20277;-62
2022/02/13 10:30:52;;;;;;;1.75;1.23;;;;;;;;;;5004081;28;20273;-63
2022/02/13 10:33:21;;;;;;;1.88;1.30;;;;;;;;;;5003007;28;20029;-62
2022/02/13 10:36:05;;;;;;;2.28;1.30;;;;;;;;;;4982993;28;20093;-62
2022/02/13 10:38:31;;;;;;;1.60;1.30;;;;;;;;;;4984314;28;20069;-60
2022/02/13 10:41:12;;;;;;;2.38;1.40;;;;;;;;;;4997522;28;20026;-62
2022/02/13 10:43:49;;;;;;;2.05;1.40;;;;;;;;;;5003238;28;20041;-60
2022/02/13 10:46:15;;;;;;;2.05;1.48;;;;;;;;;;5003463;28;20100;-61
2022/02/13 10:48:40;;;;;;;1.63;1.40;;;;;;;;;;5003571;28;20531;-61
2022/02/13 10:51:05;;;;;;;2.97;1.58;;;;;;;;;;4985958;28;20116;-61
2022/02/13 10:53:31;;;;;;;1.97;1.20;;;;;;;;;;5003024;28;20756;-62
2022/02/13 10:55:58;;;;;;;2.88;1.50;;;;;;;;;;5003174;28;20289;-62
2022/02/13 10:58:23;;;;;;;2.72;1.75;;;;;;;;;;4985318;28;20044;-61
2022/02/13 11:00:48;;;;;;;1.92;1.40;;;;;;;;;;5016034;28;20025;-58
2022/02/13 11:03:13;;;;;;;2.90;1.70;;;;;;;;;;5006715;28;20630;-62
2022/02/13 11:05:41;;;;;;;2.95;1.60;;;;;;;;;;4985855;28;20455;-63
2022/02/13 11:08:08;;;;;;;1.92;1.40;;;;;;;;;;5003197;28;20030;-60
2022/02/13 11:10:44;;;;;;;2.25;1.48;;;;;;;;;;4985138;28;20393;-62
2022/02/13 11:13:09;;;;;;;2.33;1.65;;;;;;;;;;5002320;28;20064;-60
2022/02/13 11:15:35;;;;;;;2.38;1.65;;;;;;;;;;5002945;28;21170;-62
2022/02/13 11:18:04;;;;;;;3.25;2.10;;;;;;;;;;4984370;28;20033;-61
2022/02/13 11:20:30;;;;;;;5.95;2.20;;;;;;;;;;5012656;28;20040;-62
2022/02/13 11:22:55;;;;;;;21.92;3.47;;;;;;;;;;5009166;28;20042;-61
2022/02/13 11:25:39;;;;;;;7.35;1.92;;;;;;;;;;4984732;28;20507;-59
2022/02/13 11:28:04;;;;;;;6.07;2.17;;;;;;;;;;5002081;28;20069;-60
2022/02/13 11:30:49;;;;;;;9.37;2.20;;;;;;;;;;5002501;28;20034;-62
2022/02/13 11:33:18;;;;;;;5.82;2.17;;;;;;;;;;5002228;28;20026;-62
2022/02/13 11:35:53;;;;;;;4.45;2.08;;;;;;;;;;5002242;28;20025;-60
2022/02/13 11:38:37;;;;;;;5.43;2.10;;;;;;;;;;4985172;28;20045;-59
2022/02/13 11:41:03;;;;;;;6.50;1.98;;;;;;;;;;5016833;28;20413;-60
2022/02/13 11:43:43;;;;;;;6.55;1.95;;;;;;;;;;5003310;28;20158;-61
2022/02/13 11:46:09;;;;;;;3.33;1.95;;;;;;;;;;5001489;28;20111;-61
2022/02/13 11:48:36;;;;;;;6.05;1.98;;;;;;;;;;5001699;28;20423;-58
2022/02/13 11:51:01;;;;;;;3.25;1.55;;;;;;;;;;5003577;28;20062;-59
2022/02/13 11:53:27;;;;;;;2.97;2.03;;;;;;;;;;4982787;28;20307;-56
2022/02/13 11:55:52;;;;;;;5.93;1.85;;;;;;;;;;4998800;28;20025;-61
2022/02/13 11:58:18;;;;;;;5.63;1.90;;;;;;;;;;4994084;28;20062;-57
2022/02/13 12:00:45;;;;;;;5.82;1.80;;;;;;;;;;4990510;28;20022;-59
2022/02/13 12:03:16;;;;;;;3.58;1.90;;;;;;;;;;4988363;28;20065;-62
2022/02/13 12:05:41;;;;;;;6.50;1.80;;;;;;;;;;4987055;28;20018;-61
2022/02/13 12:08:06;;;;;;;3.92;1.90;;;;;;;;;;5001716;28;20814;-54
2022/02/13 12:10:39;;;;;;;3.67;1.75;;;;;;;;;;4987720;28;20057;-60
2022/02/13 12:13:09;;;;;;;2.63;1.58;;;;;;;;;;4986883;28;20030;-58
2022/02/13 12:15:34;;;;;;;4.13;1.70;;;;;;;;;;4999136;28;20101;-59
2022/02/13 12:18:09;;;;;;;5.07;2.00;;;;;;;;;;4982221;28;20576;-59
2022/02/13 12:20:34;;;;;;;4.15;2.00;;;;;;;;;;5000160;28;20021;-55
2022/02/13 12:23:07;;;;;;;2.25;1.63;;;;;;;;;;5000381;28;20045;-57
2022/02/13 12:25:32;;;;;;;3.40;1.88;;;;;;;;;;4978003;28;20470;-58
2022/02/13 12:27:58;;;;;;;4.35;1.70;;;;;;;;;;4999472;28;20026;-60
2022/02/13 12:30:23;;;;;;;3.23;1.67;;;;;;;;;;4989451;28;20100;-60
2022/02/13 12:32:48;;;;;;;2.72;1.90;;;;;;;;;;4992302;28;20260;-59
2022/02/13 12:35:14;;;;;;;3.13;1.93;;;;;;;;;;4997112;28;20532;-60
2022/02/13 12:37:46;;;;;;;3.05;1.90;;;;;;;;;;4994057;28;20253;-58
2022/02/13 12:40:22;;;;;;;3.97;2.20;;;;;;;;;;4995378;28;20783;-58
2022/02/13 12:42:48;;;;;;;3.08;2.10;;;;;;;;;;4985224;28;20579;-62
2022/02/13 12:45:16;;;;;;;3.65;1.98;;;;;;;;;;4982391;28;20022;-61
2022/02/13 12:47:43;;;;;;;2.97;1.77;;;;;;;;;;4999482;28;20050;-58
2022/02/13 12:50:12;;;;;;;3.83;1.90;;;;;;;;;;4995852;28;20026;-58
2022/02/13 12:52:37;;;;;;;3.53;1.80;;;;;;;;;;4964300;28;20137;-60
2022/02/13 12:55:03;;;;;;;4.43;1.80;;;;;;;;;;4919861;28;20585;-60
2022/02/13 12:57:28;;;;;;;2.28;1.83;;;;;;;;;;4978651;28;20036;-62
2022/02/13 12:59:54;;;;;;;2.33;1.90;;;;;;;;;;4981379;28;20052;-57
2022/02/13 13:02:20;;;;;;;3.65;1.90;;;;;;;;;;4960545;28;20298;-60
2022/02/13 13:04:45;;;;;;;4.30;1.70;;;;;;;;;;4973643;28;20022;-61
2022/02/13 13:07:16;;;;;;;3.30;1.93;;;;;;;;;;4981426;28;20034;-59
2022/02/13 13:09:42;;;;;;;3.63;1.77;;;;;;;;;;4980213;28;20356;-59
2022/02/13 13:12:11;;;;;;;2.88;1.60;;;;;;;;;;4974249;28;20127;-64
2022/02/13 13:14:36;;;;;;;2.83;1.80;;;;;;;;;;4972372;28;20026;-59
2022/02/13 13:17:08;;;;;;;2.75;1.90;;;;;;;;;;4960386;28;20697;-61
2022/02/13 13:19:33;;;;;;;3.08;1.80;;;;;;;;;;4965744;28;20037;-62
2022/02/13 13:21:59;;;;;;;2.40;1.83;;;;;;;;;;4998909;28;20026;-63
2022/02/13 13:24:25;;;;;;;3.05;1.90;;;;;;;;;;4976261;28;20022;-60
2022/02/13 13:27:00;;;;;;;2.80;1.70;;;;;;;;;;4961352;28;20025;-62
2022/02/13 13:29:27;;;;;;;4.35;1.63;;;;;;;;;;4985047;28;20208;-61
2022/02/13 13:32:12;;;;;;;3.40;1.75;;;;;;;;;;4984516;28;20560;-61
2022/02/13 13:34:38;;;;;;;6.65;2.10;;;;;;;;;;4981554;28;20707;-59
2022/02/13 13:37:22;;;;;;;2.47;1.88;;;;;;;;;;4982633;28;20504;-60
2022/02/13 13:39:59;;;;;;;2.78;1.83;;;;;;;;;;4981812;28;20185;-61
2022/02/13 13:42:35;;;;;;;3.05;1.73;;;;;;;;;;4981909;28;20039;-66
2022/02/13 13:45:02;;;;;;;3.78;1.85;;;;;;;;;;4965679;28;20018;-59
2022/02/13 13:47:27;;;;;;;3.05;1.80;;;;;;;;;;4964747;28;20080;-60
2022/02/13 13:49:52;;;;;;;4.13;1.90;;;;;;;;;;4981825;28;20289;-57
2022/02/13 13:52:18;;;;;;;4.13;1.77;;;;;;;;;;4982845;28;20273;-54
2022/02/13 13:54:43;;;;;;;2.50;1.60;;;;;;;;;;4981459;28;20451;-57
2022/02/13 13:57:08;;;;;;;2.33;1.73;;;;;;;;;;4969502;28;20262;-61
2022/02/13 13:59:33;;;;;;;3.27;1.83;;;;;;;;;;4947005;28;20038;-61
2022/02/13 14:01:59;;;;;;;2.50;1.90;;;;;;;;;;4946688;28;20046;-60
2022/02/13 14:04:24;;;;;;;2.00;1.70;;;;;;;;;;4969638;28;20282;-61
2022/02/13 14:06:49;;;;;;;3.00;1.87;;;;;;;;;;4966570;28;20871;-61
2022/02/13 14:09:14;;;;;;;3.07;1.63;;;;;;;;;;4952228;28;20282;-60
2022/02/13 14:11:41;;;;;;;2.20;1.50;;;;;;;;;;4966217;28;20088;-59
2022/02/13 14:14:07;;;;;;;2.63;1.75;;;;;;;;;;4964210;28;20027;-61
2022/02/13 14:16:32;;;;;;;2.85;2.10;;;;;;;;;;4964212;28;20095;-58
2022/02/13 14:18:57;;;;;;;2.73;1.80;;;;;;;;;;4964147;28;20059;-59
2022/02/13 14:21:22;;;;;;;3.63;2.50;;;;;;;;;;4963797;28;20046;-57
2022/02/13 14:23:48;;;;;;;3.50;2.28;;;;;;;;;;4963809;28;20305;-57
2022/02/13 14:26:14;;;;;;;7.43;2.03;;;;;;;;;;4971789;28;20459;-56
2022/02/13 14:28:39;;;;;;;2.83;1.70;;;;;;;;;;4974743;28;20271;-56
2022/02/13 14:31:04;;;;;;;2.90;1.90;;;;;;;;;;4978097;28;20030;-60
2022/02/13 14:33:30;;;;;;;2.30;1.80;;;;;;;;;;4982203;28;20064;-56
2022/02/13 14:35:55;;;;;;;3.80;1.90;;;;;;;;;;4983589;28;20300;-60
2022/02/13 14:38:20;;;;;;;2.70;2.00;;;;;;;;;;4964733;28;20648;-59